createdAt,value
2023-03-04T00:05:52.733Z,4.65
2023-03-04T00:12:35.071Z,5.65
2023-03-04T00:19:17.402Z,4.93
2023-03-04T00:25:59.733Z,4.57
2023-03-04T00:32:42.107Z,4.85
2023-03-04T00:39:24.498Z,4.25
2023-03-04T00:46:07.290Z,4.55
2023-03-04T00:52:49.788Z,5.70
2023-03-04T00:59:33.097Z,5.88
2023-03-04T01:06:15.941Z,5.55
2023-03-04T01:12:58.322Z,4.78
2023-03-04T01:19:42.495Z,4.00
2023-03-04T01:26:24.953Z,3.97
2023-03-04T01:33:07.591Z,5.70
2023-03-04T01:39:49.913Z,5.22
2023-03-04T01:46:32.903Z,4.00
2023-03-04T01:53:27.135Z,3.78
2023-03-04T02:00:25.521Z,4.20
2023-03-04T02:07:08.919Z,4.75
2023-03-04T02:13:53.528Z,4.20
2023-03-04T02:21:23.177Z,4.25
2023-03-04T02:28:05.650Z,3.88
2023-03-04T02:34:50.878Z,4.35
2023-03-04T02:41:33.619Z,3.83
2023-03-04T02:48:22.311Z,4.30
2023-03-04T02:55:05.188Z,3.53
2023-03-04T03:01:47.846Z,3.92
2023-03-04T03:08:30.479Z,3.75
2023-03-04T03:15:13.568Z,3.55
2023-03-04T03:21:56.126Z,3.97
2023-03-04T03:28:38.652Z,4.07
2023-03-04T03:35:21.417Z,2.72
2023-03-04T03:42:04.175Z,3.67
2023-03-04T03:48:46.690Z,2.83
2023-03-04T03:55:29.339Z,2.92
2023-03-04T04:02:11.783Z,2.35
2023-03-04T04:08:54.166Z,2.88
2023-03-04T04:15:38.724Z,1.75
2023-03-04T04:22:21.727Z,1.93
2023-03-04T04:29:04.413Z,2.25
2023-03-04T04:35:48.669Z,2.13
2023-03-04T04:42:31.171Z,2.33
2023-03-04T04:49:13.691Z,1.70
2023-03-04T04:55:56.087Z,2.00
2023-03-04T05:02:38.621Z,2.13
2023-03-04T05:09:23.006Z,1.85
2023-03-04T05:16:06.105Z,2.37
2023-03-04T05:22:48.526Z,1.40
2023-03-04T05:29:30.951Z,1.65
2023-03-04T05:36:13.348Z,1.70
2023-03-04T05:42:58.676Z,1.60
2023-03-04T05:49:41.978Z,2.58
2023-03-04T05:56:24.456Z,1.23
2023-03-04T06:03:06.816Z,2.10
2023-03-04T06:09:51.828Z,1.80
2023-03-04T06:16:34.379Z,1.65
2023-03-04T06:23:17.492Z,2.35
2023-03-04T06:30:01.790Z,1.73
2023-03-04T06:36:44.748Z,2.67
2023-03-04T06:43:27.262Z,2.03
2023-03-04T06:50:12.525Z,1.63
2023-03-04T06:56:54.878Z,1.42
2023-03-04T07:03:37.239Z,2.13
2023-03-04T07:10:20.498Z,2.10
2023-03-04T07:17:02.870Z,1.58
2023-03-04T07:23:45.575Z,1.35
2023-03-04T07:30:27.992Z,1.20
2023-03-04T07:37:10.453Z,1.02
2023-03-04T07:43:59.493Z,1.48
2023-03-04T07:50:42.085Z,1.20
2023-03-04T07:57:24.472Z,1.20
2023-03-04T08:04:08.027Z,1.00
2023-03-04T08:10:50.562Z,0.93
2023-03-04T08:17:32.848Z,1.10
2023-03-04T08:24:15.166Z,0.93
2023-03-04T08:30:57.654Z,0.93
2023-03-04T08:37:40.100Z,0.90
2023-03-04T08:44:22.455Z,0.70
2023-03-04T08:51:11.325Z,0.73
2023-03-04T08:57:53.634Z,0.70
2023-03-04T09:04:37.733Z,0.63
2023-03-04T09:11:20.147Z,0.50
2023-03-04T09:18:04.068Z,0.60
2023-03-04T09:24:46.354Z,0.50
2023-03-04T09:31:29.765Z,0.68
2023-03-04T09:38:12.147Z,0.80
2023-03-04T09:44:55.553Z,0.50
2023-03-04T09:51:46.997Z,0.30
2023-03-04T09:59:07.608Z,0.40
2023-03-04T10:06:06.178Z,0.45
2023-03-04T10:12:51.224Z,0.50
2023-03-04T10:20:06.106Z,0.52
2023-03-04T10:27:07.454Z,1.20
2023-03-04T10:33:50.234Z,0.70
2023-03-04T10:40:39.655Z,0.73
2023-03-04T10:47:31.522Z,0.45
2023-03-04T10:54:34.270Z,0.30
2023-03-04T11:01:17.718Z,0.50
2023-03-04T11:08:00.729Z,0.40
2023-03-04T11:14:49.310Z,0.30
2023-03-04T11:21:40.333Z,0.63
2023-03-04T11:28:54.411Z,0.55
2023-03-04T11:36:21.740Z,0.40
2023-03-04T11:43:18.724Z,0.35
2023-03-04T11:50:57.089Z,0.47
2023-03-04T11:58:04.754Z,0.40
2023-03-04T12:05:18.725Z,0.50
2023-03-04T12:12:27.129Z,0.70
2023-03-04T12:19:43.881Z,1.40
2023-03-04T12:27:07.952Z,0.68
2023-03-04T12:34:19.357Z,0.60
2023-03-04T12:41:29.676Z,1.02
2023-03-04T12:49:04.214Z,0.43
2023-03-04T12:55:47.909Z,0.43
2023-03-04T13:02:58.451Z,0.30
2023-03-04T13:09:55.900Z,0.30
2023-03-04T13:17:02.000Z,0.40
2023-03-04T13:23:44.660Z,0.40
2023-03-04T13:30:33.561Z,0.40
2023-03-04T13:37:36.128Z,0.38
2023-03-04T13:44:58.607Z,0.50
2023-03-04T13:51:45.222Z,0.70
2023-03-04T13:58:28.259Z,0.47
2023-03-04T14:05:12.537Z,0.50
2023-03-04T14:12:03.925Z,0.38
2023-03-04T14:18:46.718Z,0.38
2023-03-04T14:25:36.887Z,0.38
2023-03-04T14:32:20.598Z,0.50
2023-03-04T14:39:07.337Z,0.40
2023-03-04T14:45:53.865Z,0.50
2023-03-04T14:52:46.267Z,0.40
2023-03-04T14:59:35.233Z,0.40
2023-03-04T15:06:26.244Z,0.60
2023-03-04T15:13:09.905Z,0.40
2023-03-04T15:20:07.545Z,0.55
2023-03-04T15:26:50.554Z,0.60
2023-03-04T15:33:34.004Z,0.50
2023-03-04T15:40:43.104Z,0.98
2023-03-04T15:47:25.852Z,1.10
2023-03-04T15:54:14.103Z,0.88
2023-03-04T16:00:56.649Z,0.63
2023-03-04T16:07:43.224Z,1.15
2023-03-04T16:14:27.440Z,0.50
2023-03-04T16:21:18.511Z,0.57
2023-03-04T16:28:04.312Z,0.57
2023-03-04T16:34:47.542Z,1.38
2023-03-04T16:41:30.855Z,0.90
2023-03-04T16:48:13.291Z,1.30
2023-03-04T16:54:56.117Z,1.02
2023-03-04T17:01:38.708Z,1.30
2023-03-04T17:08:21.085Z,1.20
2023-03-04T17:15:04.426Z,1.80
2023-03-04T17:21:46.844Z,2.00
2023-03-04T17:28:29.591Z,2.22
2023-03-04T17:35:12.277Z,2.65
2023-03-04T17:42:00.389Z,3.40
2023-03-04T17:48:43.280Z,2.78
2023-03-04T17:55:26.353Z,2.20
2023-03-04T18:02:16.302Z,3.25
2023-03-04T18:08:58.661Z,4.13
2023-03-04T18:15:41.278Z,3.17
2023-03-04T18:22:25.530Z,3.50
2023-03-04T19:02:40.978Z,3.42
2023-03-04T19:09:23.559Z,2.80
2023-03-04T19:16:06.518Z,2.00
2023-03-04T19:22:49.101Z,1.73
2023-03-04T19:29:32.059Z,1.83
2023-03-04T19:36:14.793Z,2.17
2023-03-04T19:42:58.074Z,2.10
2023-03-04T19:49:40.484Z,1.70
2023-03-04T19:56:23.452Z,2.40
2023-03-04T20:03:07.832Z,3.20
2023-03-04T20:09:50.244Z,3.40
2023-03-04T20:16:35.816Z,3.42
2023-03-04T20:23:20.387Z,3.60
2023-03-04T20:30:04.076Z,2.93
2023-03-04T20:36:46.585Z,2.25
2023-03-04T20:43:31.237Z,2.10
2023-03-04T20:50:13.595Z,1.40
2023-03-04T20:56:59.103Z,2.22
2023-03-04T21:10:24.095Z,1.77
2023-03-04T21:17:06.870Z,3.50
2023-03-04T21:23:54.842Z,2.22
2023-03-04T21:30:37.304Z,4.75
2023-03-04T21:37:21.257Z,2.42
2023-03-04T21:44:03.678Z,2.03
2023-03-04T21:50:46.014Z,2.00
2023-03-04T21:57:28.438Z,1.70
2023-03-04T22:04:10.705Z,1.90
2023-03-04T22:10:55.167Z,3.00
2023-03-04T22:17:37.505Z,2.78
2023-03-04T22:24:20.639Z,2.45
2023-03-04T22:31:03.543Z,2.72
2023-03-04T22:37:45.935Z,3.05
2023-03-04T22:44:28.292Z,2.00
2023-03-04T22:51:11.228Z,2.30
2023-03-04T22:57:53.652Z,2.33
2023-03-04T23:04:36.202Z,1.83
2023-03-04T23:11:23.728Z,1.92
2023-03-04T23:18:06.053Z,1.67
2023-03-04T23:24:48.420Z,1.70
2023-03-04T23:31:32.766Z,1.90
2023-03-04T23:38:15.788Z,1.48
2023-03-04T23:44:58.195Z,2.85
2023-03-04T23:51:41.142Z,1.48
2023-03-04T23:58:23.537Z,2.78
